createdAt,value
2022-10-30T00:00:39.103Z,55.88
2022-10-30T00:01:39.245Z,56.85
2022-10-30T00:02:39.157Z,59.49
2022-10-30T00:03:39.311Z,59.35
2022-10-30T00:04:39.059Z,58.04
2022-10-30T00:05:39.068Z,57.31
2022-10-30T00:06:39.106Z,58.56
2022-10-30T00:07:39.041Z,56.34
2022-10-30T00:08:39.155Z,56.99
2022-10-30T00:09:39.026Z,57.51
2022-10-30T00:10:39.039Z,58.01
2022-10-30T00:11:39.031Z,61.11
2022-10-30T00:12:39.012Z,56.59
2022-10-30T00:13:39.076Z,57.22
2022-10-30T00:14:38.998Z,59.69
2022-10-30T00:15:38.988Z,64.51
2022-10-30T00:16:39.007Z,58.58
2022-10-30T00:17:38.994Z,58.76
2022-10-30T00:18:39.054Z,60.68
2022-10-30T00:19:38.986Z,60.43
2022-10-30T00:20:38.970Z,56.90
2022-10-30T00:21:38.984Z,55.96
2022-10-30T00:22:38.987Z,57.46
2022-10-30T00:23:39.047Z,56.93
2022-10-30T00:24:39.069Z,60.34
2022-10-30T00:25:38.919Z,57.36
2022-10-30T00:26:38.938Z,57.65
2022-10-30T00:27:38.936Z,57.55
2022-10-30T00:28:39.212Z,57.55
2022-10-30T00:29:38.901Z,64.35
2022-10-30T00:30:38.920Z,62.39
2022-10-30T00:31:38.905Z,60.03
2022-10-30T00:32:38.884Z,57.09
2022-10-30T00:33:38.874Z,56.94
2022-10-30T00:34:38.904Z,58.02
2022-10-30T00:35:38.921Z,58.99
2022-10-30T00:36:38.846Z,60.01
2022-10-30T00:37:38.876Z,56.83
2022-10-30T00:38:38.852Z,56.05
2022-10-30T00:39:38.845Z,56.69
2022-10-30T00:40:38.868Z,56.71
2022-10-30T00:41:38.816Z,63.99
2022-10-30T00:42:38.818Z,58.06
2022-10-30T00:43:38.849Z,56.53
2022-10-30T00:44:38.804Z,56.55
2022-10-30T00:45:38.800Z,60.14
2022-10-30T00:46:38.836Z,57.12
2022-10-30T00:47:38.793Z,63.13
2022-10-30T00:48:38.775Z,56.88
2022-10-30T00:49:38.797Z,56.57
2022-10-30T00:50:38.781Z,59.85
2022-10-30T00:51:38.795Z,59.79
2022-10-30T00:52:38.783Z,56.75
2022-10-30T00:53:38.765Z,56.47
2022-10-30T00:54:39.568Z,57.39
2022-10-30T00:55:38.774Z,56.59
2022-10-30T00:56:38.760Z,57.34
2022-10-30T00:57:38.735Z,56.91
2022-10-30T00:58:38.760Z,57.11
2022-10-30T00:59:38.710Z,56.76
2022-10-30T01:00:38.706Z,64.83
2022-10-30T01:01:38.924Z,63.09
2022-10-30T01:02:38.763Z,64.98
2022-10-30T01:03:38.692Z,59.65
2022-10-30T01:04:38.707Z,57.77
2022-10-30T01:05:38.680Z,62.02
2022-10-30T01:06:38.667Z,61.10
2022-10-30T01:07:38.699Z,60.53
2022-10-30T01:08:38.750Z,58.15
2022-10-30T01:09:38.665Z,60.34
2022-10-30T01:10:38.663Z,60.83
2022-10-30T01:11:38.635Z,65.64
2022-10-30T01:12:38.643Z,61.10
2022-10-30T01:13:38.648Z,57.71
2022-10-30T01:14:38.619Z,58.39
2022-10-30T01:15:38.621Z,60.44
2022-10-30T01:16:38.657Z,59.63
2022-10-30T01:17:38.603Z,61.82
2022-10-30T01:18:38.597Z,59.87
2022-10-30T01:19:38.612Z,60.30
2022-10-30T01:20:38.581Z,59.09
2022-10-30T01:21:38.595Z,57.59
2022-10-30T01:22:38.596Z,60.43
2022-10-30T01:23:38.590Z,57.57
2022-10-30T01:24:38.550Z,57.41
2022-10-30T01:25:38.571Z,61.26
2022-10-30T01:26:38.546Z,61.83
2022-10-30T01:27:38.552Z,58.11
2022-10-30T01:28:38.579Z,57.57
2022-10-30T01:29:38.524Z,57.94
2022-10-30T01:30:38.552Z,60.48
2022-10-30T01:31:38.518Z,57.72
2022-10-30T01:32:38.540Z,57.30
2022-10-30T01:33:38.496Z,60.11
2022-10-30T01:34:38.527Z,57.56
2022-10-30T01:35:38.520Z,57.88
2022-10-30T01:36:38.484Z,57.88
2022-10-30T01:37:38.499Z,61.75
2022-10-30T01:38:38.480Z,60.04
2022-10-30T01:39:38.452Z,58.06
2022-10-30T01:40:38.471Z,60.99
2022-10-30T01:41:38.444Z,60.11
2022-10-30T01:42:38.445Z,58.81
2022-10-30T01:43:38.472Z,57.93
2022-10-30T01:44:38.419Z,57.45
2022-10-30T01:45:38.420Z,57.98
2022-10-30T01:46:38.425Z,58.14
2022-10-30T01:47:38.391Z,58.22
2022-10-30T01:48:38.452Z,58.35
2022-10-30T01:49:38.380Z,58.02
2022-10-30T01:50:38.388Z,58.16
2022-10-30T01:51:38.416Z,63.43
2022-10-30T01:52:38.368Z,58.46
2022-10-30T01:53:38.396Z,58.03
2022-10-30T01:54:38.411Z,61.38
2022-10-30T01:55:38.339Z,58.37
2022-10-30T01:56:38.336Z,61.81
2022-10-30T01:57:38.371Z,58.84
2022-10-30T01:58:38.408Z,62.71
2022-10-30T01:59:38.316Z,60.59
2022-10-30T02:00:38.348Z,59.22
2022-10-30T02:01:38.401Z,58.73
2022-10-30T02:02:38.330Z,61.52
2022-10-30T02:03:38.316Z,58.34
2022-10-30T02:04:38.293Z,58.17
2022-10-30T02:05:38.285Z,57.92
2022-10-30T02:06:38.296Z,58.25
2022-10-30T02:07:38.296Z,65.09
2022-10-30T02:08:38.260Z,60.34
2022-10-30T02:09:38.291Z,58.40
2022-10-30T02:10:38.246Z,59.43
2022-10-30T02:11:38.239Z,58.16
2022-10-30T02:12:38.260Z,57.87
2022-10-30T02:13:39.300Z,58.08
2022-10-30T02:14:38.262Z,57.80
2022-10-30T02:15:38.246Z,58.00
2022-10-30T02:16:38.232Z,57.74
2022-10-30T02:17:38.192Z,60.12
2022-10-30T02:18:38.258Z,66.24
2022-10-30T02:19:38.223Z,58.06
2022-10-30T02:20:38.181Z,63.32
2022-10-30T02:21:38.176Z,59.18
2022-10-30T02:22:38.279Z,57.96
2022-10-30T02:23:38.154Z,61.44
2022-10-30T02:24:39.180Z,61.31
2022-10-30T02:25:38.131Z,58.71
2022-10-30T02:26:39.155Z,62.28
2022-10-30T02:27:38.164Z,61.51
2022-10-30T02:28:38.131Z,57.98
2022-10-30T02:29:38.124Z,58.06
2022-10-30T02:30:38.145Z,60.92
2022-10-30T02:31:38.101Z,59.74
2022-10-30T02:32:38.109Z,58.10
2022-10-30T02:33:38.116Z,58.12
2022-10-30T02:34:38.663Z,62.34
2022-10-30T02:35:38.141Z,61.47
2022-10-30T02:36:38.115Z,57.90
2022-10-30T02:37:38.068Z,65.60
2022-10-30T02:38:38.060Z,57.84
2022-10-30T02:39:38.076Z,59.44
2022-10-30T02:40:38.059Z,61.57
2022-10-30T02:41:38.047Z,57.81
2022-10-30T02:42:38.067Z,61.15
2022-10-30T02:43:38.034Z,58.03
2022-10-30T02:44:38.036Z,57.71
2022-10-30T02:45:38.051Z,57.30
2022-10-30T02:46:38.024Z,58.37
2022-10-30T02:47:38.012Z,60.78
2022-10-30T02:48:38.051Z,57.62
2022-10-30T02:49:37.992Z,61.10
2022-10-30T02:50:37.984Z,57.77
2022-10-30T02:51:38.035Z,57.41
2022-10-30T02:52:37.976Z,57.66
2022-10-30T02:53:37.984Z,57.27
2022-10-30T02:54:38.047Z,57.56
2022-10-30T02:55:37.964Z,57.82
2022-10-30T02:56:37.968Z,60.44
2022-10-30T02:57:38.135Z,57.21
2022-10-30T02:58:37.933Z,59.28
2022-10-30T02:59:37.944Z,56.97
2022-10-30T03:00:37.959Z,60.77
2022-10-30T03:01:38.077Z,56.67
2022-10-30T03:02:37.908Z,61.34
2022-10-30T03:03:37.928Z,56.68
2022-10-30T03:04:37.898Z,55.51
2022-10-30T03:05:37.929Z,56.35
2022-10-30T03:06:37.930Z,61.16
2022-10-30T03:07:37.881Z,56.65
2022-10-30T03:08:37.871Z,55.72
2022-10-30T03:09:37.895Z,55.22
2022-10-30T03:10:37.865Z,56.51
2022-10-30T03:11:37.868Z,56.30
2022-10-30T03:12:37.930Z,56.01
2022-10-30T03:13:37.851Z,56.96
2022-10-30T03:14:37.841Z,56.84
2022-10-30T03:15:37.859Z,56.26
2022-10-30T03:16:37.849Z,60.36
2022-10-30T03:17:37.936Z,57.64
2022-10-30T03:18:37.836Z,57.08
2022-10-30T03:19:37.791Z,56.26
2022-10-30T03:20:37.795Z,56.87
2022-10-30T03:21:37.814Z,57.19
2022-10-30T03:22:37.790Z,58.57
2022-10-30T03:23:37.771Z,56.20
2022-10-30T03:24:37.792Z,55.87
2022-10-30T03:25:37.759Z,58.24
2022-10-30T03:26:37.755Z,62.30
2022-10-30T03:27:38.594Z,58.22
2022-10-30T03:28:37.738Z,57.23
2022-10-30T03:29:37.731Z,57.02
2022-10-30T03:30:37.747Z,59.37
2022-10-30T03:31:37.737Z,57.12
2022-10-30T03:32:37.722Z,56.59
2022-10-30T03:33:37.733Z,57.51
2022-10-30T03:34:37.693Z,56.93
2022-10-30T03:35:37.685Z,56.69
2022-10-30T03:36:37.716Z,56.87
2022-10-30T03:37:37.672Z,57.15
2022-10-30T03:38:37.681Z,59.05
2022-10-30T03:39:37.678Z,56.65
2022-10-30T03:40:37.659Z,56.79
2022-10-30T03:41:37.649Z,56.49
2022-10-30T03:42:37.662Z,55.93
2022-10-30T03:43:37.662Z,56.58
2022-10-30T03:44:37.645Z,56.61
2022-10-30T03:45:37.653Z,56.06
2022-10-30T03:46:37.621Z,55.27
2022-10-30T03:47:37.617Z,55.16
2022-10-30T03:48:37.629Z,54.78
2022-10-30T03:49:37.621Z,54.49
2022-10-30T03:50:37.589Z,54.81
2022-10-30T03:51:37.610Z,57.59
2022-10-30T03:52:37.591Z,59.27
2022-10-30T03:53:37.582Z,56.05
2022-10-30T03:54:37.613Z,55.19
2022-10-30T03:55:37.570Z,55.03
2022-10-30T03:56:37.554Z,61.09
2022-10-30T03:57:37.575Z,54.56
2022-10-30T03:58:37.541Z,55.47
2022-10-30T03:59:37.537Z,55.00
2022-10-30T04:00:37.578Z,54.27
2022-10-30T04:01:37.723Z,54.10
2022-10-30T04:02:37.513Z,54.53
2022-10-30T04:03:37.528Z,53.94
2022-10-30T04:04:37.505Z,54.12
2022-10-30T04:05:37.505Z,54.24
2022-10-30T04:06:37.492Z,54.72
2022-10-30T04:07:37.488Z,55.24
2022-10-30T04:08:37.510Z,57.95
2022-10-30T04:09:37.464Z,54.24
2022-10-30T04:10:37.579Z,54.42
2022-10-30T04:11:37.464Z,54.63
2022-10-30T04:12:37.455Z,54.78
2022-10-30T04:13:37.468Z,56.88
2022-10-30T04:14:37.452Z,58.85
2022-10-30T04:15:37.450Z,54.33
2022-10-30T04:16:37.452Z,58.90
2022-10-30T04:17:37.419Z,56.39
2022-10-30T04:18:37.447Z,59.53
2022-10-30T04:19:37.435Z,57.29
2022-10-30T04:20:37.412Z,58.75
2022-10-30T04:21:37.409Z,54.86
2022-10-30T04:22:37.384Z,62.20
2022-10-30T04:23:37.405Z,54.64
2022-10-30T04:24:37.408Z,54.54
2022-10-30T04:25:37.375Z,54.68
2022-10-30T04:26:37.360Z,63.82
2022-10-30T04:27:37.381Z,54.00
2022-10-30T04:28:37.344Z,54.31
2022-10-30T04:29:37.334Z,54.33
2022-10-30T04:30:37.368Z,54.26
2022-10-30T04:31:37.319Z,57.75
2022-10-30T04:32:37.308Z,55.44
2022-10-30T04:33:37.349Z,56.97
2022-10-30T04:34:37.308Z,59.03
2022-10-30T04:35:37.292Z,53.81
2022-10-30T04:36:37.325Z,54.45
2022-10-30T04:37:37.282Z,53.27
2022-10-30T04:38:37.288Z,54.08
2022-10-30T04:39:40.893Z,58.99
2022-10-30T04:40:38.258Z,56.53
2022-10-30T04:41:37.252Z,54.63
2022-10-30T04:42:37.271Z,58.92
2022-10-30T04:43:37.259Z,52.80
2022-10-30T04:44:37.232Z,53.40
2022-10-30T04:45:37.249Z,53.80
2022-10-30T04:46:37.223Z,59.14
2022-10-30T04:47:37.220Z,61.67
2022-10-30T04:48:37.244Z,53.99
2022-10-30T04:49:37.358Z,56.82
2022-10-30T04:50:37.193Z,59.24
2022-10-30T04:51:37.196Z,53.70
2022-10-30T04:52:37.191Z,59.49
2022-10-30T04:53:37.183Z,64.73
2022-10-30T04:54:37.212Z,66.34
2022-10-30T04:55:37.167Z,55.83
2022-10-30T04:56:37.168Z,53.55
2022-10-30T04:57:38.153Z,56.18
2022-10-30T04:58:37.167Z,59.65
2022-10-30T04:59:37.132Z,53.23
2022-10-30T05:00:37.161Z,53.31
2022-10-30T05:01:37.272Z,53.48
2022-10-30T05:02:37.428Z,53.51
2022-10-30T05:03:37.146Z,53.54
2022-10-30T05:04:37.101Z,60.82
2022-10-30T05:05:37.096Z,54.32
2022-10-30T05:06:37.139Z,55.26
2022-10-30T05:07:37.639Z,53.76
2022-10-30T05:08:37.103Z,57.14
2022-10-30T05:09:37.051Z,53.47
2022-10-30T05:10:37.052Z,57.42
2022-10-30T05:11:37.108Z,58.72
2022-10-30T05:12:37.047Z,53.64
2022-10-30T05:13:37.026Z,60.44
2022-10-30T05:14:37.049Z,62.10
2022-10-30T05:15:37.025Z,63.51
2022-10-30T05:16:37.039Z,57.59
2022-10-30T05:17:37.102Z,53.15
2022-10-30T05:18:37.024Z,53.10
2022-10-30T05:19:37.001Z,54.22
2022-10-30T05:20:37.019Z,55.19
2022-10-30T05:21:37.008Z,60.41
2022-10-30T05:22:36.988Z,53.69
2022-10-30T05:23:37.001Z,54.41
2022-10-30T05:24:36.970Z,62.36
2022-10-30T05:26:08.912Z,53.70
2022-10-30T05:26:36.979Z,55.37
2022-10-30T05:27:36.969Z,53.69
2022-10-30T05:28:36.947Z,53.37
2022-10-30T05:29:36.919Z,53.38
2022-10-30T05:30:36.930Z,53.31
2022-10-30T05:31:36.912Z,58.17
2022-10-30T05:32:36.917Z,57.96
2022-10-30T05:33:37.921Z,58.16
2022-10-30T05:34:36.911Z,60.55
2022-10-30T05:35:36.914Z,54.93
2022-10-30T05:36:36.908Z,54.00
2022-10-30T05:37:36.876Z,54.54
2022-10-30T05:38:36.911Z,54.38
2022-10-30T05:39:36.884Z,53.97
2022-10-30T05:40:36.910Z,54.56
2022-10-30T05:41:36.864Z,59.57
2022-10-30T05:42:36.863Z,58.36
2022-10-30T05:43:36.867Z,53.59
2022-10-30T05:44:59.378Z,58.70
2022-10-30T05:45:38.866Z,62.89
2022-10-30T05:46:36.839Z,53.59
2022-10-30T05:47:36.835Z,53.77
2022-10-30T05:48:36.820Z,62.02
2022-10-30T05:49:36.802Z,54.78
2022-10-30T05:50:36.807Z,58.28
2022-10-30T05:51:39.698Z,62.57
2022-10-30T05:52:36.799Z,54.80
2022-10-30T05:53:36.799Z,63.25
2022-10-30T05:54:36.789Z,59.16
2022-10-30T05:55:36.775Z,58.27
2022-10-30T05:56:36.763Z,58.74
2022-10-30T05:57:36.763Z,59.75
2022-10-30T05:58:36.787Z,59.35
2022-10-30T05:59:36.747Z,57.22
2022-10-30T06:00:36.744Z,58.01
2022-10-30T06:01:36.819Z,62.70
2022-10-30T06:02:36.764Z,59.66
2022-10-30T06:03:36.775Z,56.89
2022-10-30T06:04:36.734Z,54.13
2022-10-30T06:05:36.744Z,57.15
2022-10-30T06:06:36.701Z,63.04
2022-10-30T06:07:36.711Z,59.04
2022-10-30T06:08:36.721Z,63.75
2022-10-30T06:09:36.701Z,56.64
2022-10-30T06:10:36.714Z,60.98
2022-10-30T06:11:37.585Z,56.49
2022-10-30T06:12:36.674Z,61.78
2022-10-30T06:13:36.685Z,66.03
2022-10-30T06:14:36.662Z,66.53
2022-10-30T06:15:37.190Z,59.96
2022-10-30T06:16:36.668Z,58.41
2022-10-30T06:17:36.647Z,63.52
2022-10-30T06:18:36.655Z,59.56
2022-10-30T06:19:36.643Z,58.63
2022-10-30T06:20:36.655Z,62.18
2022-10-30T06:21:36.628Z,67.75
2022-10-30T06:22:36.616Z,59.00
2022-10-30T06:23:36.608Z,62.78
2022-10-30T06:24:36.614Z,58.30
2022-10-30T06:25:41.146Z,59.06
2022-10-30T06:26:37.590Z,66.53
2022-10-30T06:27:36.594Z,69.20
2022-10-30T06:28:36.578Z,62.90
2022-10-30T06:29:36.575Z,61.18
2022-10-30T06:30:36.579Z,66.07
2022-10-30T06:31:36.578Z,64.38
2022-10-30T06:32:36.572Z,66.35
2022-10-30T06:33:36.550Z,62.89
2022-10-30T06:34:36.566Z,62.86
2022-10-30T06:35:36.532Z,63.03
2022-10-30T06:36:36.576Z,56.03
2022-10-30T06:37:37.162Z,58.44
2022-10-30T06:38:36.539Z,63.36
2022-10-30T06:39:36.522Z,61.06
2022-10-30T06:40:36.507Z,66.05
2022-10-30T06:41:36.490Z,55.83
2022-10-30T06:42:36.539Z,63.99
2022-10-30T06:43:36.517Z,55.82
2022-10-30T06:44:36.501Z,56.94
2022-10-30T06:45:36.480Z,60.25
2022-10-30T06:46:36.476Z,61.33
2022-10-30T06:47:36.469Z,62.36
2022-10-30T06:48:36.477Z,65.36
2022-10-30T06:49:36.452Z,59.34
2022-10-30T06:50:36.466Z,57.99
2022-10-30T06:51:36.444Z,58.96
2022-10-30T06:52:36.440Z,61.47
2022-10-30T06:53:36.435Z,64.50
2022-10-30T06:54:36.432Z,66.80
2022-10-30T06:55:36.416Z,64.53
2022-10-30T06:56:36.417Z,60.74
2022-10-30T06:57:36.415Z,71.22
2022-10-30T06:58:36.441Z,61.16
2022-10-30T06:59:36.422Z,65.93
2022-10-30T07:00:36.461Z,63.82
2022-10-30T07:01:36.458Z,64.42
2022-10-30T07:02:36.412Z,66.26
2022-10-30T07:03:36.375Z,69.93
2022-10-30T07:04:36.367Z,68.23
2022-10-30T07:05:36.368Z,66.56
2022-10-30T07:06:36.358Z,66.12
2022-10-30T07:07:36.364Z,66.19
2022-10-30T07:08:36.349Z,60.95
2022-10-30T07:09:36.343Z,61.87
2022-10-30T07:10:36.384Z,58.72
2022-10-30T07:11:36.338Z,67.53
2022-10-30T07:12:36.324Z,63.59
2022-10-30T07:13:36.311Z,63.59
2022-10-30T07:14:36.319Z,65.81
2022-10-30T07:15:36.416Z,61.13
2022-10-30T07:16:36.302Z,66.77
2022-10-30T07:17:36.278Z,68.05
2022-10-30T07:18:36.301Z,66.00
2022-10-30T07:19:36.267Z,67.69
2022-10-30T07:20:36.333Z,67.68
2022-10-30T07:21:36.284Z,69.32
2022-10-30T07:22:36.297Z,63.69
2022-10-30T07:23:37.156Z,61.73
2022-10-30T07:24:37.155Z,66.70
2022-10-30T07:25:37.235Z,69.66
2022-10-30T07:26:36.268Z,68.04
2022-10-30T07:27:37.178Z,63.13
2022-10-30T07:28:36.208Z,65.34
2022-10-30T07:29:36.209Z,68.44
2022-10-30T07:30:36.258Z,70.94
2022-10-30T07:31:42.699Z,66.87
2022-10-30T07:32:37.194Z,69.61
2022-10-30T07:33:36.180Z,67.63
2022-10-30T07:34:36.167Z,68.87
2022-10-30T07:35:36.194Z,65.70
2022-10-30T07:36:37.041Z,63.26
2022-10-30T07:37:36.163Z,68.74
2022-10-30T07:38:36.152Z,65.01
2022-10-30T07:39:36.149Z,69.71
2022-10-30T07:40:36.180Z,62.57
2022-10-30T07:41:36.141Z,68.62
2022-10-30T07:42:36.197Z,69.46
2022-10-30T07:43:36.132Z,69.68
2022-10-30T07:44:36.101Z,63.81
2022-10-30T07:45:36.099Z,63.61
2022-10-30T07:46:36.123Z,65.55
2022-10-30T07:47:36.108Z,67.73
2022-10-30T07:48:36.082Z,61.07
2022-10-30T07:49:36.074Z,63.12
2022-10-30T07:50:36.094Z,68.99
2022-10-30T07:51:36.058Z,67.73
2022-10-30T07:52:36.062Z,67.37
2022-10-30T07:53:36.083Z,68.06
2022-10-30T07:54:36.068Z,68.02
2022-10-30T07:55:36.043Z,69.61
2022-10-30T07:56:36.045Z,66.19
2022-10-30T07:57:36.062Z,61.16
2022-10-30T07:58:37.377Z,69.76
2022-10-30T07:59:36.067Z,64.85
2022-10-30T08:00:36.011Z,67.02
2022-10-30T08:01:36.165Z,69.01
2022-10-30T08:02:36.189Z,66.83
2022-10-30T08:03:36.090Z,68.97
2022-10-30T08:04:35.986Z,67.10
2022-10-30T08:05:35.990Z,67.47
2022-10-30T08:06:35.978Z,70.41
2022-10-30T08:07:35.963Z,66.86
2022-10-30T08:08:40.378Z,62.60
2022-10-30T08:09:37.981Z,66.60
2022-10-30T08:10:35.949Z,69.00
2022-10-30T08:11:35.946Z,66.77
2022-10-30T08:12:35.928Z,67.94
2022-10-30T08:13:35.942Z,69.12
2022-10-30T08:14:35.934Z,68.98
2022-10-30T08:15:35.938Z,68.45
2022-10-30T08:16:35.945Z,65.98
2022-10-30T08:17:35.911Z,69.22
2022-10-30T08:18:35.930Z,60.98
2022-10-30T08:19:35.910Z,69.42
2022-10-30T08:20:35.982Z,68.43
2022-10-30T08:21:35.893Z,64.12
2022-10-30T08:22:35.881Z,68.80
2022-10-30T08:23:35.876Z,69.73
2022-10-30T08:24:35.981Z,64.75
2022-10-30T08:25:35.865Z,66.88
2022-10-30T08:26:35.857Z,69.07
2022-10-30T08:27:35.865Z,66.64
2022-10-30T08:28:35.829Z,66.33
2022-10-30T08:29:35.849Z,63.19
2022-10-30T08:30:35.896Z,63.45
2022-10-30T08:31:35.848Z,69.12
2022-10-30T08:32:35.811Z,67.17
2022-10-30T08:33:35.828Z,65.72
2022-10-30T08:34:35.810Z,69.13
2022-10-30T08:36:35.797Z,67.21
2022-10-30T08:37:35.781Z,67.76
2022-10-30T08:38:35.779Z,65.41
2022-10-30T08:39:36.214Z,69.31
2022-10-30T08:40:35.757Z,69.77
2022-10-30T08:41:35.782Z,59.39
2022-10-30T08:42:35.770Z,68.71
2022-10-30T08:43:35.746Z,62.56
2022-10-30T08:44:35.766Z,62.14
2022-10-30T08:45:35.730Z,64.11
2022-10-30T08:46:35.742Z,62.20
2022-10-30T08:47:35.726Z,65.13
2022-10-30T08:48:35.716Z,64.40
2022-10-30T08:49:36.972Z,67.60
2022-10-30T08:50:35.728Z,73.69
2022-10-30T08:51:35.703Z,65.04
2022-10-30T08:52:35.691Z,67.81
2022-10-30T08:53:35.689Z,66.71
2022-10-30T08:54:35.674Z,68.33
2022-10-30T08:55:35.804Z,66.81
2022-10-30T08:56:35.667Z,60.65
2022-10-30T08:57:35.683Z,65.14
2022-10-30T08:58:35.650Z,68.41
2022-10-30T08:59:35.679Z,67.10
2022-10-30T09:00:35.670Z,67.06
2022-10-30T09:01:35.835Z,66.00
2022-10-30T09:02:35.734Z,65.84
2022-10-30T09:03:35.635Z,67.66
2022-10-30T09:04:35.634Z,65.27
2022-10-30T09:05:35.655Z,63.21
2022-10-30T09:06:35.611Z,69.78
2022-10-30T09:07:35.638Z,67.90
2022-10-30T09:08:35.899Z,61.09
2022-10-30T09:09:35.589Z,63.93
2022-10-30T09:10:35.575Z,64.57
2022-10-30T09:11:35.652Z,65.47
2022-10-30T09:12:35.563Z,65.52
2022-10-30T09:13:35.555Z,65.19
2022-10-30T09:14:35.570Z,62.96
2022-10-30T09:15:35.534Z,65.58
2022-10-30T09:16:35.548Z,68.33
2022-10-30T09:17:35.543Z,66.06
2022-10-30T09:18:35.715Z,64.05
2022-10-30T09:19:35.557Z,64.08
2022-10-30T09:20:35.526Z,63.18
2022-10-30T09:21:35.524Z,56.75
2022-10-30T09:22:35.511Z,64.08
2022-10-30T09:23:35.511Z,67.66
2022-10-30T09:24:35.495Z,64.00
2022-10-30T09:25:35.494Z,63.85
2022-10-30T09:26:35.507Z,64.37
2022-10-30T09:27:35.479Z,67.86
2022-10-30T09:28:35.480Z,63.79
2022-10-30T09:29:35.487Z,67.21
2022-10-30T09:30:35.469Z,61.27
2022-10-30T09:31:35.450Z,61.51
2022-10-30T09:32:35.454Z,71.88
2022-10-30T09:33:35.469Z,65.63
2022-10-30T09:34:35.437Z,65.09
2022-10-30T09:35:35.422Z,67.70
2022-10-30T09:36:35.488Z,69.35
2022-10-30T09:37:35.434Z,68.39
2022-10-30T09:38:35.423Z,65.52
2022-10-30T09:39:35.439Z,71.46
2022-10-30T09:40:35.415Z,63.67
2022-10-30T09:41:35.416Z,59.75
2022-10-30T09:42:35.437Z,64.82
2022-10-30T09:43:35.399Z,68.64
2022-10-30T09:44:35.393Z,65.23
2022-10-30T09:45:35.379Z,66.49
2022-10-30T09:46:35.367Z,65.90
2022-10-30T09:47:36.379Z,67.27
2022-10-30T09:48:35.364Z,66.61
2022-10-30T09:49:35.399Z,55.40
2022-10-30T09:50:38.831Z,69.72
2022-10-30T09:51:35.367Z,55.37
2022-10-30T09:52:35.344Z,62.49
2022-10-30T09:53:35.347Z,57.02
2022-10-30T09:54:35.344Z,66.41
2022-10-30T09:55:35.342Z,53.62
2022-10-30T09:56:35.334Z,69.27
2022-10-30T09:57:35.332Z,54.39
2022-10-30T09:58:35.303Z,69.05
2022-10-30T09:59:35.353Z,67.34
2022-10-30T10:00:35.317Z,69.72
2022-10-30T10:01:35.389Z,66.23
2022-10-30T10:02:35.414Z,65.64
2022-10-30T10:03:35.280Z,71.01
2022-10-30T10:04:35.285Z,66.33
2022-10-30T10:05:35.251Z,66.76
2022-10-30T10:06:36.239Z,68.69
2022-10-30T10:07:35.356Z,58.93
2022-10-30T10:08:35.264Z,67.95
2022-10-30T10:09:35.587Z,63.76
2022-10-30T10:10:35.217Z,68.58
2022-10-30T10:11:35.236Z,68.91
2022-10-30T10:12:35.257Z,64.40
2022-10-30T10:13:35.203Z,66.61
2022-10-30T10:14:35.215Z,66.31
2022-10-30T10:15:35.197Z,65.63
2022-10-30T10:16:35.204Z,64.74
2022-10-30T10:17:35.194Z,67.72
2022-10-30T10:18:35.189Z,67.75
2022-10-30T10:19:35.252Z,66.37
2022-10-30T10:20:35.172Z,69.14
2022-10-30T10:21:35.164Z,56.00
2022-10-30T10:22:35.155Z,66.80
2022-10-30T10:23:35.163Z,59.99
2022-10-30T10:24:35.174Z,68.72
2022-10-30T10:25:36.224Z,69.92
2022-10-30T10:26:35.177Z,64.14
2022-10-30T10:27:35.228Z,61.20
2022-10-30T10:28:36.792Z,69.43
2022-10-30T10:29:36.117Z,60.65
2022-10-30T10:30:35.145Z,68.15
2022-10-30T10:31:35.720Z,67.71
2022-10-30T10:32:35.097Z,66.67
2022-10-30T10:33:35.145Z,67.28
2022-10-30T10:34:35.106Z,69.89
2022-10-30T10:35:35.080Z,60.98
2022-10-30T10:36:35.084Z,64.80
2022-10-30T10:37:35.106Z,63.51
2022-10-30T10:38:35.079Z,63.98
2022-10-30T10:39:35.080Z,69.13
2022-10-30T10:40:35.060Z,65.31
2022-10-30T10:41:35.144Z,69.69
2022-10-30T10:42:35.045Z,69.95
2022-10-30T10:43:35.077Z,66.93
2022-10-30T10:44:35.061Z,71.56
2022-10-30T10:45:35.038Z,65.84
2022-10-30T10:46:35.026Z,67.58
2022-10-30T10:47:35.058Z,68.29
2022-10-30T10:48:35.010Z,69.91
2022-10-30T10:49:39.026Z,68.12
2022-10-30T10:50:36.001Z,72.95
2022-10-30T10:51:34.982Z,66.05
2022-10-30T10:52:35.008Z,69.16
2022-10-30T10:53:34.978Z,70.65
2022-10-30T10:54:35.017Z,67.78
2022-10-30T10:55:34.981Z,70.89
2022-10-30T10:56:35.026Z,61.07
2022-10-30T10:57:34.955Z,71.60
2022-10-30T10:58:34.967Z,64.43
2022-10-30T10:59:34.946Z,72.26
2022-10-30T11:00:34.950Z,70.54
2022-10-30T11:01:36.072Z,70.77
2022-10-30T11:02:34.980Z,68.52
2022-10-30T11:03:34.922Z,68.63
2022-10-30T11:04:34.937Z,65.73
2022-10-30T11:05:34.926Z,69.60
2022-10-30T11:06:34.916Z,69.84
2022-10-30T11:07:34.913Z,65.69
2022-10-30T11:08:34.912Z,70.11
2022-10-30T11:09:34.898Z,70.17
2022-10-30T11:10:34.885Z,70.99
2022-10-30T11:11:34.905Z,64.39
2022-10-30T11:12:36.339Z,69.45
2022-10-30T11:13:35.699Z,68.84
2022-10-30T11:14:34.858Z,69.19
2022-10-30T11:15:34.859Z,72.48
2022-10-30T11:16:34.866Z,67.95
2022-10-30T11:17:34.841Z,71.40
2022-10-30T11:18:34.865Z,66.94
2022-10-30T11:19:34.847Z,70.88
2022-10-30T11:20:34.848Z,68.85
2022-10-30T11:21:34.837Z,68.23
2022-10-30T11:22:34.830Z,67.53
2022-10-30T11:23:34.818Z,66.86
2022-10-30T11:24:34.816Z,66.19
2022-10-30T11:25:34.813Z,71.46
2022-10-30T11:26:34.826Z,69.40
2022-10-30T11:28:09.374Z,69.63
2022-10-30T11:28:35.745Z,71.81
2022-10-30T11:29:34.816Z,71.78
2022-10-30T11:30:34.791Z,66.11
2022-10-30T11:31:34.785Z,67.84
2022-10-30T11:32:35.857Z,71.17
2022-10-30T11:33:34.766Z,69.68
2022-10-30T11:34:34.792Z,72.36
2022-10-30T11:35:34.746Z,70.16
2022-10-30T11:36:34.751Z,73.02
2022-10-30T11:37:34.750Z,63.50
2022-10-30T11:38:34.742Z,69.93
2022-10-30T11:39:34.749Z,69.29
2022-10-30T11:40:34.730Z,63.98
2022-10-30T11:41:34.717Z,68.21
2022-10-30T11:42:34.746Z,71.77
2022-10-30T11:43:34.700Z,68.73
2022-10-30T11:44:34.711Z,71.82
2022-10-30T11:45:34.708Z,69.15
2022-10-30T11:46:34.700Z,71.09
2022-10-30T11:48:34.680Z,61.63
2022-10-30T11:49:35.687Z,67.55
2022-10-30T11:50:34.700Z,66.32
2022-10-30T11:51:34.746Z,69.87
2022-10-30T11:52:34.683Z,65.52
2022-10-30T11:53:34.665Z,69.61
2022-10-30T11:54:34.659Z,64.65
2022-10-30T11:55:34.648Z,69.03
2022-10-30T11:56:34.715Z,70.28
2022-10-30T11:57:34.663Z,70.25
2022-10-30T11:58:34.632Z,65.44
2022-10-30T11:59:34.618Z,67.58
2022-10-30T12:00:34.623Z,67.09
2022-10-30T12:01:34.710Z,70.19
2022-10-30T12:02:34.766Z,71.74
2022-10-30T12:03:34.620Z,70.91
2022-10-30T12:04:34.611Z,67.80
2022-10-30T12:05:34.593Z,70.89
2022-10-30T12:06:34.582Z,69.80
2022-10-30T12:07:34.614Z,71.26
2022-10-30T12:08:34.592Z,67.66
2022-10-30T12:09:34.578Z,68.56
2022-10-30T12:10:34.598Z,64.94
2022-10-30T12:11:34.622Z,68.39
2022-10-30T12:17:12.094Z,72.74
2022-10-30T12:18:12.024Z,65.98
2022-10-30T12:19:12.015Z,72.50
2022-10-30T12:20:12.018Z,66.85
2022-10-30T12:21:11.990Z,70.39
2022-10-30T12:22:11.991Z,68.45
2022-10-30T12:23:12.007Z,72.86
2022-10-30T12:24:11.991Z,70.97
2022-10-30T12:25:11.979Z,72.71
2022-10-30T12:26:11.995Z,64.97
2022-10-30T12:27:11.962Z,70.41
2022-10-30T12:28:11.980Z,68.21
2022-10-30T12:29:11.960Z,70.77
2022-10-30T12:30:11.977Z,65.22
2022-10-30T12:31:11.927Z,67.61
2022-10-30T12:32:11.934Z,65.81
2022-10-30T12:33:12.087Z,72.68
2022-10-30T12:35:12.944Z,65.47
2022-10-30T12:36:11.909Z,72.93
2022-10-30T12:37:11.908Z,65.46
2022-10-30T12:38:11.916Z,68.63
2022-10-30T12:39:11.896Z,67.90
2022-10-30T12:40:11.903Z,72.25
2022-10-30T12:41:12.496Z,70.05
2022-10-30T12:42:11.876Z,69.91
2022-10-30T12:43:11.869Z,66.82
2022-10-30T12:44:11.900Z,71.87
2022-10-30T12:45:11.860Z,64.42
2022-10-30T12:46:11.845Z,68.65
2022-10-30T12:47:11.871Z,72.75
2022-10-30T12:48:11.848Z,70.46
2022-10-30T12:49:11.872Z,71.37
2022-10-30T12:50:11.860Z,69.72
2022-10-30T12:51:11.865Z,71.52
2022-10-30T12:52:11.828Z,69.91
2022-10-30T12:53:11.903Z,70.27
2022-10-30T12:54:11.820Z,65.32
2022-10-30T12:55:11.808Z,67.91
2022-10-30T12:56:11.843Z,69.84
2022-10-30T12:57:11.796Z,68.81
2022-10-30T12:58:11.799Z,72.57
2022-10-30T12:59:11.796Z,71.00
2022-10-30T13:00:11.795Z,67.09